createdAt,value
2018-06-25T00:00:20.269Z,101798.84
2018-06-25T00:02:50.136Z,101802.25
2018-06-25T00:05:19.499Z,101797.50
2018-06-25T00:07:49.252Z,101807.03
2018-06-25T00:10:18.644Z,101801.77
2018-06-25T00:12:48.024Z,101807.38
2018-06-25T00:15:17.379Z,101798.05
2018-06-25T00:17:46.860Z,101806.79
2018-06-25T00:20:15.955Z,101803.59
2018-06-25T00:22:45.140Z,101813.23
2018-06-25T00:25:14.531Z,101805.77
2018-06-25T00:27:43.798Z,101809.23
2018-06-25T00:30:13.098Z,101807.13
2018-06-25T00:32:42.700Z,101814.36
2018-06-25T00:35:12.157Z,101808.57
2018-06-25T00:37:41.415Z,101810.28
2018-06-25T00:40:10.804Z,101809.59
2018-06-25T00:42:40.079Z,101807.88
2018-06-25T00:45:09.344Z,101803.10
2018-06-25T00:47:38.872Z,101808.05
2018-06-25T00:50:08.257Z,101812.81
2018-06-25T00:52:37.646Z,101807.70
2018-06-25T00:55:06.995Z,101809.23
2018-06-25T00:57:36.284Z,101806.17
2018-06-25T01:00:05.651Z,101800.17
2018-06-25T01:02:34.958Z,101804.27
2018-06-25T01:05:04.232Z,101795.87
2018-06-25T01:07:33.527Z,101795.55
2018-06-25T01:10:03.274Z,101798.77
2018-06-25T01:12:32.739Z,101810.22
2018-06-25T01:15:02.072Z,101806.46
2018-06-25T01:17:31.533Z,101804.41
2018-06-25T01:20:00.950Z,101799.97
2018-06-25T01:22:30.543Z,101807.48
2018-06-25T01:25:00.267Z,101807.81
2018-06-25T01:27:29.768Z,101806.77
2018-06-25T01:29:59.138Z,101811.06
2018-06-25T01:32:28.988Z,101809.69
2018-06-25T01:34:58.337Z,101809.33
2018-06-25T01:37:28.127Z,101797.70
2018-06-25T01:39:57.836Z,101804.88
2018-06-25T01:42:27.371Z,101801.69
2018-06-25T01:44:56.605Z,101801.83
2018-06-25T01:47:26.332Z,101800.62
2018-06-25T01:49:56.169Z,101806.06
2018-06-25T01:52:25.673Z,101807.73
2018-06-25T01:54:55.243Z,101809.07
2018-06-25T01:57:24.787Z,101812.60
2018-06-25T01:59:54.488Z,101805.92
2018-06-25T02:02:23.889Z,101800.38
2018-06-25T02:04:53.476Z,101799.20
2018-06-25T02:07:22.938Z,101801.57
2018-06-25T02:09:52.878Z,101801.80
2018-06-25T02:12:22.321Z,101806.27
2018-06-25T02:14:51.988Z,101800.58
2018-06-25T02:17:21.963Z,101809.14
2018-06-25T02:19:51.495Z,101803.98
2018-06-25T02:22:21.099Z,101801.60
2018-06-25T02:24:50.667Z,101803.80
2018-06-25T02:27:20.236Z,101805.37
2018-06-25T02:29:50.078Z,101812.08
2018-06-25T02:32:19.547Z,101805.78
2018-06-25T02:34:48.868Z,101810.03
2018-06-25T02:37:18.423Z,101806.77
2018-06-25T02:39:48.580Z,101808.62
2018-06-25T02:42:18.075Z,101802.27
2018-06-25T02:44:47.548Z,101802.77
2018-06-25T02:47:17.007Z,101805.38
2018-06-25T02:49:46.507Z,101806.77
2018-06-25T02:52:16.170Z,101811.89
2018-06-25T02:54:45.956Z,101816.14
2018-06-25T02:57:15.494Z,101824.50
2018-06-25T02:59:45.002Z,101823.47
2018-06-25T03:02:15.049Z,101818.70
2018-06-25T03:04:44.368Z,101824.89
2018-06-25T03:07:13.825Z,101822.97
2018-06-25T03:09:42.905Z,101824.17
2018-06-25T03:12:12.191Z,101817.98
2018-06-25T03:14:42.043Z,101817.00
2018-06-25T03:17:11.357Z,101815.95
2018-06-25T03:19:40.606Z,101817.98
2018-06-25T03:22:10.078Z,101819.83
2018-06-25T03:24:39.506Z,101823.56
2018-06-25T03:27:08.802Z,101822.35
2018-06-25T03:29:38.116Z,101818.66
2018-06-25T03:32:07.548Z,101819.33
2018-06-25T03:34:36.893Z,101825.64
2018-06-25T03:37:06.210Z,101824.79
2018-06-25T03:39:35.494Z,101827.64
2018-06-25T03:42:04.823Z,101835.46
2018-06-25T03:44:34.092Z,101835.33
2018-06-25T03:47:03.806Z,101840.25
2018-06-25T03:49:33.127Z,101842.78
2018-06-25T03:52:02.424Z,101850.52
2018-06-25T03:54:31.728Z,101851.35
2018-06-25T03:57:01.075Z,101842.27
2018-06-25T03:59:30.364Z,101839.22
2018-06-25T04:01:59.663Z,101843.61
2018-06-25T04:04:28.962Z,101845.80
2018-06-25T04:06:58.326Z,101846.66
2018-06-25T04:09:27.665Z,101838.55
2018-06-25T04:11:56.961Z,101839.86
2018-06-25T04:14:26.350Z,101839.26
2018-06-25T04:16:55.675Z,101835.12
2018-06-25T04:19:24.953Z,101829.96
2018-06-25T04:21:54.344Z,101837.24
2018-06-25T04:24:23.675Z,101843.61
2018-06-25T04:26:53.077Z,101848.39
2018-06-25T04:29:22.387Z,101845.53
2018-06-25T04:31:51.773Z,101848.19
2018-06-25T04:34:21.115Z,101839.98
2018-06-25T04:36:50.390Z,101848.17
2018-06-25T04:39:19.679Z,101851.53
2018-06-25T04:41:48.987Z,101854.35
2018-06-25T04:44:18.318Z,101852.53
2018-06-25T04:46:47.611Z,101861.92
2018-06-25T04:49:16.926Z,101852.44
2018-06-25T04:51:46.286Z,101854.09
2018-06-25T04:54:16.129Z,101852.86
2018-06-25T04:56:45.535Z,101854.95
2018-06-25T04:59:14.908Z,101858.90
2018-06-25T05:01:44.247Z,101857.25
2018-06-25T05:04:13.530Z,101857.06
2018-06-25T05:06:42.839Z,101852.22
2018-06-25T05:09:12.255Z,101849.75
2018-06-25T05:11:42.050Z,101852.52
2018-06-25T05:14:11.373Z,101852.30
2018-06-25T05:16:41.110Z,101850.11
2018-06-25T05:19:10.572Z,101853.01
2018-06-25T05:21:39.987Z,101850.65
2018-06-25T05:24:09.390Z,101842.05
2018-06-25T05:26:38.635Z,101846.25
2018-06-25T05:29:07.973Z,101851.11
2018-06-25T05:31:37.366Z,101858.92
2018-06-25T05:34:06.791Z,101859.58
2018-06-25T05:36:36.101Z,101866.32
2018-06-25T05:39:09.725Z,101865.34
2018-06-25T05:41:39.023Z,101869.45
2018-06-25T05:44:08.460Z,101867.94
2018-06-25T05:46:37.787Z,101871.79
2018-06-25T05:49:07.267Z,101865.70
2018-06-25T05:51:36.567Z,101863.08
2018-06-25T05:54:05.938Z,101867.34
2018-06-25T05:56:35.256Z,101860.70
2018-06-25T05:59:04.613Z,101865.95
2018-06-25T06:01:34.157Z,101865.83
2018-06-25T06:04:03.511Z,101862.80
2018-06-25T06:06:32.605Z,101863.01
2018-06-25T06:09:02.008Z,101861.43
2018-06-25T06:11:31.355Z,101857.32
2018-06-25T06:14:00.481Z,101859.05
2018-06-25T06:16:29.549Z,101863.99
2018-06-25T06:18:58.737Z,101858.50
2018-06-25T06:21:28.023Z,101864.55
2018-06-25T06:23:57.946Z,101858.73
2018-06-25T06:26:27.311Z,101858.66
2018-06-25T06:28:56.662Z,101865.59
2018-06-25T06:31:25.724Z,101873.31
2018-06-25T06:33:55.039Z,101875.61
2018-06-25T06:36:24.403Z,101872.36
2018-06-25T06:38:53.763Z,101879.36
2018-06-25T06:41:23.097Z,101878.38
2018-06-25T06:43:52.477Z,101884.84
2018-06-25T06:46:22.099Z,101883.02
2018-06-25T06:48:51.419Z,101887.85
2018-06-25T06:51:20.715Z,101873.66
2018-06-25T06:53:50.082Z,101874.70
2018-06-25T06:56:19.443Z,101875.23
2018-06-25T06:58:48.798Z,101880.06
2018-06-25T07:01:18.401Z,101882.09
2018-06-25T07:03:47.456Z,101884.61
2018-06-25T07:06:16.829Z,101881.37
2018-06-25T07:08:46.791Z,101890.34
2018-06-25T07:11:16.200Z,101878.11
2018-06-25T07:13:45.510Z,101890.39
2018-06-25T07:16:17.772Z,101889.34
2018-06-25T07:18:47.279Z,101890.66
2018-06-25T07:21:16.595Z,101888.68
2018-06-25T07:23:45.967Z,101887.19
2018-06-25T07:26:21.663Z,101890.47
2018-06-25T07:28:51.001Z,101889.23
2018-06-25T07:31:20.286Z,101881.44
2018-06-25T07:33:49.696Z,101888.77
2018-06-25T07:36:19.021Z,101895.11
2018-06-25T07:38:48.398Z,101893.95
2018-06-25T07:41:18.607Z,101893.35
2018-06-25T07:43:47.917Z,101898.00
2018-06-25T07:46:17.250Z,101888.06
2018-06-25T07:48:47.085Z,101890.28
2018-06-25T07:51:16.399Z,101890.73
2018-06-25T07:53:45.694Z,101890.67
2018-06-25T07:56:15.032Z,101898.92
2018-06-25T07:58:44.365Z,101900.82
2018-06-25T08:01:13.660Z,101901.86
2018-06-25T08:03:43.072Z,101900.89
2018-06-25T08:06:12.401Z,101897.28
2018-06-25T08:08:41.835Z,101903.05
2018-06-25T08:11:11.314Z,101907.17
2018-06-25T08:13:40.719Z,101899.45
2018-06-25T08:16:10.129Z,101907.06
2018-06-25T08:18:39.290Z,101903.18
2018-06-25T08:21:08.679Z,101914.09
2018-06-25T08:23:38.064Z,101909.39
2018-06-25T08:26:07.428Z,101910.70
2018-06-25T08:28:36.747Z,101922.19
2018-06-25T08:31:06.096Z,101921.54
2018-06-25T08:33:35.723Z,101919.74
2018-06-25T08:36:05.125Z,101921.92
2018-06-25T08:38:34.487Z,101928.50
2018-06-25T08:41:03.854Z,101928.88
2018-06-25T08:43:33.191Z,101935.44
2018-06-25T08:46:02.605Z,101933.83
2018-06-25T08:48:32.030Z,101927.42
2018-06-25T08:51:01.360Z,101926.37
2018-06-25T08:53:30.755Z,101936.72
2018-06-25T08:56:00.517Z,101926.78
2018-06-25T08:58:29.961Z,101934.76
2018-06-25T09:00:59.380Z,101944.36
2018-06-25T09:03:28.827Z,101941.69
2018-06-25T09:05:58.127Z,101941.03
2018-06-25T09:08:27.546Z,101939.79
2018-06-25T09:10:56.872Z,101938.22
2018-06-25T09:13:26.330Z,101939.43
2018-06-25T09:15:55.769Z,101942.42
2018-06-25T09:18:25.436Z,101937.52
2018-06-25T09:20:54.514Z,101939.06
2018-06-25T09:23:23.796Z,101947.20
2018-06-25T09:25:53.139Z,101948.52
2018-06-25T09:28:22.469Z,101951.95
2018-06-25T09:30:51.766Z,101956.93
2018-06-25T09:33:21.112Z,101955.89
2018-06-25T09:35:50.480Z,101957.09
2018-06-25T09:38:19.934Z,101958.47
2018-06-25T09:40:49.585Z,101957.45
2018-06-25T09:43:18.910Z,101965.08
2018-06-25T09:45:48.245Z,101965.11
2018-06-25T09:48:17.639Z,101967.38
2018-06-25T09:50:46.944Z,101969.88
2018-06-25T09:53:16.285Z,101976.69
2018-06-25T09:55:45.677Z,101972.80
2018-06-25T09:58:15.018Z,101975.27
2018-06-25T10:00:49.628Z,101978.66
2018-06-25T10:03:19.034Z,101973.38
2018-06-25T10:05:48.359Z,101977.20
2018-06-25T10:08:17.743Z,101974.20
2018-06-25T10:10:47.068Z,101977.14
2018-06-25T10:13:16.408Z,101988.66
2018-06-25T10:15:45.769Z,101984.34
2018-06-25T10:18:15.126Z,101979.25
2018-06-25T10:20:44.407Z,101987.16
2018-06-25T10:23:13.589Z,101982.44
2018-06-25T10:25:42.918Z,101976.92
2018-06-25T10:28:12.295Z,101974.66
2018-06-25T10:30:41.676Z,101977.91
2018-06-25T10:33:11.029Z,101976.58
2018-06-25T10:35:40.348Z,101979.30
2018-06-25T10:38:09.707Z,101976.45
2018-06-25T10:40:39.136Z,101980.14
2018-06-25T10:43:08.584Z,101983.47
2018-06-25T10:45:38.145Z,101987.27
2018-06-25T10:48:07.537Z,101992.40
2018-06-25T10:50:36.850Z,101994.46
2018-06-25T10:53:06.235Z,101998.28
2018-06-25T10:55:35.565Z,101989.63
2018-06-25T10:58:04.885Z,102001.94
2018-06-25T11:00:34.245Z,101995.86
2018-06-25T11:03:03.697Z,102008.06
2018-06-25T11:05:32.999Z,101992.59
2018-06-25T11:08:02.656Z,101996.42
2018-06-25T11:10:32.090Z,101996.17
2018-06-25T11:13:01.511Z,101984.75
2018-06-25T11:15:30.828Z,101988.17
2018-06-25T11:18:00.197Z,101990.48
2018-06-25T11:20:29.519Z,101985.26
2018-06-25T11:22:58.842Z,101982.89
2018-06-25T11:25:28.139Z,101988.36
2018-06-25T11:27:57.687Z,101997.38
2018-06-25T11:30:27.412Z,101992.85
2018-06-25T11:32:56.713Z,101992.01
2018-06-25T11:35:26.047Z,101998.81
2018-06-25T11:37:55.389Z,102000.19
2018-06-25T11:40:24.775Z,102002.28
2018-06-25T11:42:54.118Z,102001.70
2018-06-25T11:45:23.484Z,102004.80
2018-06-25T11:47:52.837Z,102005.77
2018-06-25T11:50:22.202Z,102008.77
2018-06-25T11:52:51.631Z,102013.30
2018-06-25T11:55:21.029Z,102001.12
2018-06-25T11:57:50.395Z,102011.59
2018-06-25T12:00:19.739Z,102005.77
2018-06-25T12:02:49.161Z,102011.98
2018-06-25T12:05:18.398Z,102015.19
2018-06-25T12:07:47.776Z,102010.08
2018-06-25T12:10:17.083Z,102004.13
2018-06-25T12:12:46.370Z,102004.38
2018-06-25T12:15:16.223Z,102005.14
2018-06-25T12:17:45.538Z,102000.40
2018-06-25T12:20:14.891Z,102000.52
2018-06-25T12:22:44.269Z,101995.66
2018-06-25T12:25:13.581Z,101989.98
2018-06-25T12:27:42.977Z,101991.08
2018-06-25T12:30:12.360Z,101996.22
2018-06-25T12:32:41.723Z,101997.39
2018-06-25T12:35:11.404Z,101992.30
2018-06-25T12:37:41.028Z,101992.59
2018-06-25T12:40:10.361Z,101990.50
2018-06-25T12:42:39.704Z,101987.57
2018-06-25T12:45:08.904Z,101984.38
2018-06-25T12:47:38.359Z,101990.03
2018-06-25T12:50:07.736Z,101997.12
2018-06-25T12:52:37.157Z,101994.72
2018-06-25T12:55:06.536Z,101994.58
2018-06-25T12:57:36.203Z,102003.31
2018-06-25T13:00:05.670Z,101997.27
2018-06-25T13:02:35.029Z,102001.91
2018-06-25T13:05:04.495Z,102003.43
2018-06-25T13:07:33.847Z,102012.44
2018-06-25T13:10:03.206Z,102014.20
2018-06-25T13:12:32.539Z,102020.54
2018-06-25T13:15:02.284Z,102028.36
2018-06-25T13:17:31.548Z,102027.34
2018-06-25T13:20:00.813Z,102025.78
2018-06-25T13:22:30.671Z,102025.36
2018-06-25T13:25:00.011Z,102030.63
2018-06-25T13:27:29.307Z,102039.08
2018-06-25T13:29:58.691Z,102040.63
2018-06-25T13:32:28.058Z,102045.38
2018-06-25T13:34:57.372Z,102041.33
2018-06-25T13:37:26.719Z,102041.00
2018-06-25T13:39:56.036Z,102041.52
2018-06-25T13:42:25.431Z,102047.67
2018-06-25T13:44:55.413Z,102040.17
2018-06-25T13:47:24.766Z,102045.02
2018-06-25T13:49:54.107Z,102044.23
2018-06-25T13:52:23.410Z,102045.61
2018-06-25T13:54:52.780Z,102044.36
2018-06-25T13:57:22.088Z,102047.44
2018-06-25T13:59:51.583Z,102054.25
2018-06-25T14:02:20.900Z,102054.57
2018-06-25T14:04:50.221Z,102047.94
2018-06-25T14:07:19.913Z,102060.01
2018-06-25T14:09:49.220Z,102053.55
2018-06-25T14:12:18.632Z,102053.54
2018-06-25T14:14:47.986Z,102050.66
2018-06-25T14:17:17.314Z,102054.83
2018-06-25T14:19:46.662Z,102053.56
2018-06-25T14:22:16.022Z,102050.07
2018-06-25T14:24:49.675Z,102048.34
2018-06-25T14:27:19.560Z,102055.88
2018-06-25T14:29:48.885Z,102055.30
2018-06-25T14:32:23.447Z,102052.75
2018-06-25T14:34:58.061Z,102056.33
2018-06-25T14:37:27.471Z,102059.22
2018-06-25T14:39:56.782Z,102056.33
2018-06-25T14:42:26.214Z,102055.45
2018-06-25T14:44:55.790Z,102059.69
2018-06-25T14:47:25.054Z,102056.60
2018-06-25T14:49:54.358Z,102045.67
2018-06-25T14:52:23.756Z,102046.49
2018-06-25T14:54:53.085Z,102041.84
2018-06-25T14:57:22.830Z,102034.92
2018-06-25T14:59:52.211Z,102032.48
2018-06-25T15:02:21.539Z,102038.09
2018-06-25T15:04:50.845Z,102037.08
2018-06-25T15:07:20.560Z,102033.27
2018-06-25T15:09:49.838Z,102035.93
2018-06-25T15:12:19.164Z,102039.16
2018-06-25T15:14:48.570Z,102034.93
2018-06-25T15:17:18.177Z,102030.57
2018-06-25T15:19:47.671Z,102017.16
2018-06-25T15:22:17.067Z,102028.97
2018-06-25T15:24:46.639Z,102032.28
2018-06-25T15:27:15.942Z,102033.75
2018-06-25T15:29:45.431Z,102025.02
2018-06-25T15:32:14.783Z,102036.50
2018-06-25T15:34:44.286Z,102034.93
2018-06-25T15:37:13.687Z,102037.37
2018-06-25T15:39:43.008Z,102037.36
2018-06-25T15:42:12.394Z,102045.02
2018-06-25T15:44:41.751Z,102038.12
2018-06-25T15:47:11.100Z,102038.66
2018-06-25T15:49:40.738Z,102050.02
2018-06-25T15:52:10.150Z,102050.81
2018-06-25T15:54:39.431Z,102045.30
2018-06-25T15:57:09.202Z,102045.08
2018-06-25T15:59:38.534Z,102041.06
2018-06-25T16:02:07.855Z,102040.27
2018-06-25T16:04:37.181Z,102038.27
2018-06-25T16:07:06.524Z,102041.88
2018-06-25T16:09:35.955Z,102042.98
2018-06-25T16:12:05.332Z,102040.83
2018-06-25T16:14:34.784Z,102036.64
2018-06-25T16:17:04.164Z,102043.14
2018-06-25T16:19:34.246Z,102037.05
2018-06-25T16:22:03.537Z,102034.90
2018-06-25T16:24:33.076Z,102044.80
2018-06-25T16:27:02.613Z,102048.59
2018-06-25T16:29:31.976Z,102041.53
2018-06-25T16:32:01.290Z,102039.05
2018-06-25T16:34:30.663Z,102038.06
2018-06-25T16:37:00.712Z,102036.34
2018-06-25T16:39:30.337Z,102036.69
2018-06-25T16:41:59.754Z,102041.59
2018-06-25T16:44:29.131Z,102030.26
2018-06-25T16:46:58.504Z,102042.95
2018-06-25T16:49:28.051Z,102034.41
2018-06-25T16:51:57.488Z,102050.18
2018-06-25T16:54:26.955Z,102054.19
2018-06-25T16:56:56.376Z,102061.84
2018-06-25T16:59:26.063Z,102066.40
2018-06-25T17:01:55.559Z,102068.69
2018-06-25T17:04:25.148Z,102065.04
2018-06-25T17:06:54.818Z,102059.88
2018-06-25T17:09:24.404Z,102060.54
2018-06-25T17:11:53.835Z,102060.25
2018-06-25T17:14:23.334Z,102069.02
2018-06-25T17:16:52.808Z,102072.09
2018-06-25T17:19:24.679Z,102067.02
2018-06-25T17:21:54.305Z,102070.41
2018-06-25T17:24:23.687Z,102066.97
2018-06-25T17:26:53.321Z,102064.56
2018-06-25T17:29:22.772Z,102058.59
2018-06-25T17:31:52.704Z,102057.80
2018-06-25T17:34:22.490Z,102059.50
2018-06-25T17:36:52.016Z,102053.81
2018-06-25T17:39:21.755Z,102063.23
2018-06-25T17:41:51.352Z,102066.73
2018-06-25T17:44:20.781Z,102059.24
2018-06-25T17:46:50.173Z,102070.16
2018-06-25T17:49:19.826Z,102071.38
2018-06-25T17:51:49.236Z,102069.45
2018-06-25T17:54:18.707Z,102072.61
2018-06-25T17:56:48.215Z,102075.65
2018-06-25T17:59:17.620Z,102066.89
2018-06-25T18:01:46.819Z,102067.52
2018-06-25T18:04:16.268Z,102058.25
2018-06-25T18:06:45.671Z,102063.61
2018-06-25T18:09:15.113Z,102066.81
2018-06-25T18:11:44.549Z,102065.89
2018-06-25T18:14:13.959Z,102067.23
2018-06-25T18:16:43.334Z,102061.00
2018-06-25T18:19:12.948Z,102061.96
2018-06-25T18:21:42.380Z,102060.44
2018-06-25T18:24:11.790Z,102065.34
2018-06-25T18:26:41.226Z,102066.38
2018-06-25T18:29:10.643Z,102060.66
2018-06-25T18:31:40.088Z,102062.48
2018-06-25T18:34:09.707Z,102057.16
2018-06-25T18:36:39.147Z,102058.51
2018-06-25T18:39:11.634Z,102063.40
2018-06-25T18:41:41.135Z,102061.99
2018-06-25T18:44:10.551Z,102068.48
2018-06-25T18:46:40.312Z,102069.92
2018-06-25T18:49:09.717Z,102076.91
2018-06-25T18:51:39.237Z,102080.41
2018-06-25T18:54:08.889Z,102087.64
2018-06-25T18:56:38.428Z,102092.44
2018-06-25T18:59:08.060Z,102087.34
2018-06-25T19:01:37.631Z,102092.95
2018-06-25T19:04:07.164Z,102093.84
2018-06-25T19:06:36.731Z,102092.66
2018-06-25T19:09:10.685Z,102089.83
2018-06-25T19:11:39.548Z,102091.22
2018-06-25T19:14:09.043Z,102086.02
2018-06-25T19:16:38.227Z,102084.59
2018-06-25T19:19:07.614Z,102076.30
2018-06-25T19:21:37.201Z,102083.00
2018-06-25T19:24:06.622Z,102074.34
2018-06-25T19:26:36.345Z,102081.65
2018-06-25T19:29:06.172Z,102080.95
2018-06-25T19:31:35.918Z,102078.05
2018-06-25T19:34:05.444Z,102081.56
2018-06-25T19:36:35.526Z,102089.45
2018-06-25T19:39:10.770Z,102078.75
2018-06-25T19:41:40.479Z,102076.70
2018-06-25T19:44:10.894Z,102074.30
2018-06-25T19:46:40.722Z,102082.28
2018-06-25T19:49:10.458Z,102086.05
2018-06-25T19:51:39.955Z,102088.94
2018-06-25T19:54:09.541Z,102090.87
2018-06-25T19:56:39.317Z,102088.66
2018-06-25T19:59:09.345Z,102100.32
2018-06-25T20:01:38.950Z,102094.04
2018-06-25T20:04:08.812Z,102095.73
2018-06-25T20:06:38.340Z,102096.06
2018-06-25T20:09:11.556Z,102103.30
2018-06-25T20:11:41.853Z,102103.44
2018-06-25T20:14:11.583Z,102106.00
2018-06-25T20:16:41.705Z,102108.97
2018-06-25T20:19:11.076Z,102113.28
2018-06-25T20:21:40.490Z,102112.80
2018-06-25T20:24:09.861Z,102114.00
2018-06-25T20:26:39.286Z,102116.05
2018-06-25T20:29:08.758Z,102123.56
2018-06-25T20:31:38.652Z,102125.98
2018-06-25T20:34:08.242Z,102124.62
2018-06-25T20:36:37.959Z,102131.84
2018-06-25T20:39:11.054Z,102133.55
2018-06-25T20:41:40.795Z,102128.73
2018-06-25T20:44:10.357Z,102134.38
2018-06-25T20:46:40.060Z,102136.39
2018-06-25T20:49:09.422Z,102134.17
2018-06-25T20:51:38.920Z,102139.84
2018-06-25T20:54:09.211Z,102136.44
2018-06-25T20:56:38.727Z,102137.97
2018-06-25T20:59:08.141Z,102140.03
2018-06-25T21:01:37.629Z,102144.15
2018-06-25T21:04:07.192Z,102146.22
2018-06-25T21:06:36.630Z,102148.59
2018-06-25T21:09:09.878Z,102141.58
2018-06-25T21:11:39.797Z,102139.53
2018-06-25T21:14:09.255Z,102135.92
2018-06-25T21:16:38.702Z,102133.88
2018-06-25T21:19:07.820Z,102137.96
2018-06-25T21:21:37.278Z,102123.62
2018-06-25T21:24:07.365Z,102124.98
2018-06-25T21:26:37.120Z,102126.70
2018-06-25T21:29:06.298Z,102117.43
2018-06-25T21:31:35.989Z,102124.44
2018-06-25T21:34:05.461Z,102130.45
2018-06-25T21:36:34.824Z,102130.98
2018-06-25T21:39:06.268Z,102131.66
2018-06-25T21:41:35.652Z,102128.08
2018-06-25T21:44:05.561Z,102131.13
2018-06-25T21:46:35.258Z,102136.80
2018-06-25T21:49:04.639Z,102143.80
2018-06-25T21:51:34.034Z,102150.83
2018-06-25T21:54:03.739Z,102144.84
2018-06-25T21:56:33.094Z,102143.82
2018-06-25T21:59:02.550Z,102145.02
2018-06-25T22:01:32.100Z,102142.80
2018-06-25T22:04:01.546Z,102150.65
2018-06-25T22:06:30.936Z,102144.17
2018-06-25T22:09:00.368Z,102143.30
2018-06-25T22:11:29.733Z,102145.86
2018-06-25T22:13:59.259Z,102142.28
2018-06-25T22:16:28.945Z,102146.39
2018-06-25T22:18:58.290Z,102145.53
2018-06-25T22:21:27.683Z,102140.41
2018-06-25T22:23:57.085Z,102141.78
2018-06-25T22:26:26.548Z,102138.85
2018-06-25T22:28:55.912Z,102142.78
2018-06-25T22:31:25.489Z,102144.84
2018-06-25T22:33:55.608Z,102150.48
2018-06-25T22:36:25.007Z,102151.34
2018-06-25T22:38:54.381Z,102157.00
2018-06-25T22:41:24.036Z,102152.37
2018-06-25T22:43:53.867Z,102155.12
2018-06-25T22:46:23.430Z,102157.84
2018-06-25T22:48:53.166Z,102153.05
2018-06-25T22:51:22.466Z,102145.36
2018-06-25T22:53:51.798Z,102148.27
2018-06-25T22:56:21.132Z,102147.24
2018-06-25T22:58:50.509Z,102149.64
2018-06-25T23:01:20.455Z,102143.98
2018-06-25T23:03:50.259Z,102143.80
2018-06-25T23:06:19.891Z,102146.03
2018-06-25T23:08:49.310Z,102150.83
2018-06-25T23:11:19.018Z,102149.97
2018-06-25T23:13:48.831Z,102149.80
2018-06-25T23:16:18.479Z,102150.31
2018-06-25T23:18:48.001Z,102147.94
2018-06-25T23:21:17.343Z,102152.03
2018-06-25T23:23:46.763Z,102149.80
2018-06-25T23:26:16.039Z,102147.91
2018-06-25T23:28:46.567Z,102148.28
2018-06-25T23:31:16.427Z,102148.59
2018-06-25T23:33:45.819Z,102145.35
2018-06-25T23:36:15.150Z,102141.09
2018-06-25T23:38:44.531Z,102140.91
2018-06-25T23:41:14.006Z,102141.77
2018-06-25T23:43:43.380Z,102141.42
2018-06-25T23:46:12.824Z,102145.19
2018-06-25T23:48:42.134Z,102142.61
2018-06-25T23:51:11.520Z,102142.09
2018-06-25T23:53:40.901Z,102148.63
2018-06-25T23:56:10.203Z,102153.39
2018-06-25T23:58:39.522Z,102149.98
